Time;durP1;ratioP1;P1;durP2;ratioP2;P2;SDS_P1;SDS_P2;PMS_P1;PMS_P2;Temp;Humidity;BMP_temperature;BMP_pressure;BME280_temperature;BME280_humidity;BME280_pressure;Samples;Min_cycle;Max_cycle;Signal;HPM_P1;HPM_P2
2023/06/07 00:00:16;;;;;;;;;;;;;;;28.84;41.65;96326.69;4962849;28;20410;-45
2023/06/07 00:02:44;;;;;;;;;;;;;;;29.04;41.12;96318.66;4954872;28;19964;-48
2023/06/07 00:05:14;;;;;;;;;;;;;;;28.09;42.54;96324.00;4959448;28;19968;-50
2023/06/07 00:07:42;;;;;;;;;;;;;;;28.09;42.64;96318.59;4959156;28;19964;-44
2023/06/07 00:10:11;;;;;;;;;;;;;;;28.09;42.28;96321.31;4959899;28;20482;-47
2023/06/07 00:12:39;;;;;;;;;;;;;;;27.31;44.16;96315.38;4963761;28;19972;-49
2023/06/07 00:15:07;;;;;;;;;;;;;;;28.42;42.04;96311.25;4966124;28;19961;-44
2023/06/07 00:17:40;;;;;;;;;;;;;;;29.39;39.82;96309.00;4958946;28;19972;-47
2023/06/07 00:20:09;;;;;;;;;;;;;;;29.37;39.98;96296.75;4962536;28;20410;-47
2023/06/07 00:22:38;;;;;;;;;;;;;;;29.55;39.33;96301.69;4955704;28;19972;-44
2023/06/07 00:25:07;;;;;;;;;;;;;;;29.39;39.67;96297.28;4961128;28;19957;-44
2023/06/07 00:27:35;;;;;;;;;;;;;;;29.49;39.88;96298.16;4962992;28;19980;-44
2023/06/07 00:30:03;;;;;;;;;;;;;;;29.47;39.73;96294.88;4962776;28;19981;-47
2023/06/07 00:32:32;;;;;;;;;;;;;;;29.36;39.48;96295.94;4966660;28;19960;-52
2023/06/07 00:35:01;;;;;;;;;;;;;;;29.37;39.60;96294.03;4964331;28;20760;-50
2023/06/07 00:37:29;;;;;;;;;;;;;;;29.47;39.66;96288.63;4961148;28;19954;-45
2023/06/07 00:39:57;;;;;;;;;;;;;;;28.79;41.14;96291.38;4967656;28;19980;-44
2023/06/07 00:42:25;;;;;;;;;;;;;;;28.79;40.73;96292.19;4929812;28;20378;-45
2023/06/07 00:44:53;;;;;;;;;;;;;;;28.51;41.55;96300.72;4959612;28;19966;-45
2023/06/07 00:47:22;;;;;;;;;;;;;;;28.49;41.16;96300.16;4956442;28;19954;-46
2023/06/07 00:49:50;;;;;;;;;;;;;;;27.93;42.15;96300.56;4958057;28;19953;-50
2023/06/07 00:52:19;;;;;;;;;;;;;;;27.98;42.17;96295.19;4962228;28;20000;-46
2023/06/07 00:54:47;;;;;;;;;;;;;;;28.46;40.90;96293.38;4961517;28;19962;-45
2023/06/07 00:57:17;;;;;;;;;;;;;;;28.07;42.67;96287.38;4962666;28;19953;-50
2023/06/07 00:59:45;;;;;;;;;;;;;;;28.50;41.96;96297.19;4960633;28;19961;-45
2023/06/07 01:02:14;;;;;;;;;;;;;;;28.28;42.71;96285.63;4964618;28;19965;-45
2023/06/07 01:04:42;;;;;;;;;;;;;;;27.83;43.75;96276.91;4959590;28;19957;-44
2023/06/07 01:07:11;;;;;;;;;;;;;;;27.15;45.85;96284.63;4959368;28;19957;-44
2023/06/07 01:09:40;;;;;;;;;;;;;;;27.84;43.77;96285.84;4962038;28;19969;-45
2023/06/07 01:12:09;;;;;;;;;;;;;;;28.11;43.35;96288.50;4966854;28;19999;-51
2023/06/07 01:14:37;;;;;;;;;;;;;;;28.38;42.97;96286.53;4959808;28;20378;-44
2023/06/07 01:17:05;;;;;;;;;;;;;;;27.88;43.90;96289.69;4964552;28;20405;-46
2023/06/07 01:19:34;;;;;;;;;;;;;;;27.74;44.88;96294.69;4965708;28;20359;-46
2023/06/07 01:22:04;;;;;;;;;;;;;;;28.55;42.37;96275.50;4970006;28;19984;-47
2023/06/07 01:24:35;;;;;;;;;;;;;;;28.73;41.93;96281.56;4958708;28;20449;-49
2023/06/07 01:27:04;;;;;;;;;;;;;;;28.26;42.93;96279.66;4959579;28;19968;-44
2023/06/07 01:29:32;;;;;;;;;;;;;;;28.36;42.45;96287.88;4963706;28;19962;-45
2023/06/07 01:32:03;;;;;;;;;;;;;;;27.71;44.27;96286.25;4965366;28;19968;-44
2023/06/07 01:34:31;;;;;;;;;;;;;;;28.07;43.25;96274.63;4960219;28;19965;-47
2023/06/07 01:37:00;;;;;;;;;;;;;;;27.93;44.52;96276.97;4962554;28;19972;-46
2023/06/07 01:39:28;;;;;;;;;;;;;;;28.35;43.25;96276.19;4959199;28;19960;-46
2023/06/07 01:41:57;;;;;;;;;;;;;;;27.96;43.96;96267.53;4959177;28;19969;-47
2023/06/07 01:44:25;;;;;;;;;;;;;;;28.32;43.06;96276.72;4966208;28;19958;-51
2023/06/07 01:46:53;;;;;;;;;;;;;;;27.78;44.42;96273.34;4957755;28;19984;-49
2023/06/07 01:49:21;;;;;;;;;;;;;;;27.36;45.19;96285.66;4958251;28;20017;-50
2023/06/07 01:51:49;;;;;;;;;;;;;;;28.59;42.79;96273.91;4959520;28;20432;-52
2023/06/07 01:54:17;;;;;;;;;;;;;;;27.14;45.59;96279.47;4963024;28;19960;-48
2023/06/07 01:56:48;;;;;;;;;;;;;;;27.63;43.81;96276.69;4960361;28;19965;-46
2023/06/07 01:59:20;;;;;;;;;;;;;;;27.93;43.84;96265.31;4964141;28;19976;-45
2023/06/07 02:01:51;;;;;;;;;;;;;;;27.87;43.94;96263.66;4955929;28;19966;-47
2023/06/07 02:04:20;;;;;;;;;;;;;;;27.79;43.74;96264.94;4958253;28;20034;-46
2023/06/07 02:06:48;;;;;;;;;;;;;;;27.66;44.17;96263.44;4958715;28;19973;-50
2023/06/07 02:09:16;;;;;;;;;;;;;;;28.44;42.13;96254.03;4960250;28;19973;-51
2023/06/07 02:11:44;;;;;;;;;;;;;;;27.30;43.81;96264.22;4956479;28;19977;-48
2023/06/07 02:14:12;;;;;;;;;;;;;;;28.39;41.25;96260.25;4963909;28;19991;-45
2023/06/07 02:16:41;;;;;;;;;;;;;;;27.14;44.01;96263.22;4958100;28;19961;-47
2023/06/07 02:19:11;;;;;;;;;;;;;;;27.71;42.80;96267.28;4955581;28;19969;-46
2023/06/07 02:21:39;;;;;;;;;;;;;;;27.95;42.39;96267.78;4956463;28;20000;-43
2023/06/07 02:24:07;;;;;;;;;;;;;;;28.01;42.71;96264.03;4959762;28;19961;-46
2023/06/07 02:26:36;;;;;;;;;;;;;;;27.84;42.89;96262.28;4952794;28;19973;-45
2023/06/07 02:29:04;;;;;;;;;;;;;;;27.02;43.84;96273.34;4956979;28;19980;-51
2023/06/07 02:31:33;;;;;;;;;;;;;;;27.69;42.32;96271.06;4956396;28;20383;-47
2023/06/07 02:34:02;;;;;;;;;;;;;;;26.25;45.19;96269.63;4960017;28;19973;-46
2023/06/07 02:36:40;;;;;;;;;;;;;;;25.82;46.49;96267.63;4962254;28;20366;-45
2023/06/07 02:39:18;;;;;;;;;;;;;;;27.10;43.81;96268.28;4963630;28;20427;-44
2023/06/07 02:41:46;;;;;;;;;;;;;;;26.25;45.78;96277.72;4961985;28;19972;-46
2023/06/07 02:44:16;;;;;;;;;;;;;;;26.41;45.81;96278.78;4960748;28;19964;-44
2023/06/07 02:46:51;;;;;;;;;;;;;;;26.75;45.06;96279.53;4971311;28;19930;-49
2023/06/07 02:49:20;;;;;;;;;;;;;;;26.83;45.76;96278.25;4961300;28;19971;-49
2023/06/07 02:51:48;;;;;;;;;;;;;;;27.58;43.50;96285.59;4955004;28;20627;-45
2023/06/07 02:54:19;;;;;;;;;;;;;;;27.51;43.48;96278.75;4961262;28;19925;-46
2023/06/07 02:56:47;;;;;;;;;;;;;;;27.44;43.33;96279.78;4963103;28;19954;-44
2023/06/07 02:59:15;;;;;;;;;;;;;;;27.24;43.31;96278.75;4959323;28;19969;-52
2023/06/07 03:01:44;;;;;;;;;;;;;;;26.68;44.67;96281.59;4979552;28;19933;-44
2023/06/07 03:04:12;;;;;;;;;;;;;;;27.15;43.10;96276.53;4965123;28;19978;-46
2023/06/07 03:06:42;;;;;;;;;;;;;;;27.67;41.76;96284.06;4966616;28;19973;-45
2023/06/07 03:09:10;;;;;;;;;;;;;;;26.79;43.71;96283.38;4961106;28;19973;-48
2023/06/07 03:11:38;;;;;;;;;;;;;;;26.70;44.17;96291.13;4958251;28;19997;-47
2023/06/07 03:14:06;;;;;;;;;;;;;;;27.41;42.61;96291.13;4957040;28;19976;-52
2023/06/07 03:16:34;;;;;;;;;;;;;;;26.86;43.75;96302.94;4962302;28;19988;-46
2023/06/07 03:19:02;;;;;;;;;;;;;;;26.37;44.96;96304.69;4964875;28;19961;-49
2023/06/07 03:21:30;;;;;;;;;;;;;;;27.36;42.53;96301.91;4960082;28;20442;-50
2023/06/07 03:23:59;;;;;;;;;;;;;;;26.65;44.28;96303.75;4964570;28;20569;-46
2023/06/07 03:26:27;;;;;;;;;;;;;;;26.44;44.75;96303.44;4963137;28;19997;-45
2023/06/07 03:28:56;;;;;;;;;;;;;;;27.29;42.13;96308.59;4954180;28;19954;-45
2023/06/07 03:31:25;;;;;;;;;;;;;;;27.54;40.88;96299.94;4957413;28;20591;-44
2023/06/07 03:33:53;;;;;;;;;;;;;;;26.95;42.11;96311.44;4957698;28;19961;-48
2023/06/07 03:36:24;;;;;;;;;;;;;;;26.32;45.74;96313.53;4958517;28;19968;-52
2023/06/07 03:38:53;;;;;;;;;;;;;;;26.89;44.68;96307.84;4957740;28;19972;-46
2023/06/07 03:41:25;;;;;;;;;;;;;;;26.56;46.07;96316.06;4962269;28;19918;-48
2023/06/07 03:43:54;;;;;;;;;;;;;;;27.32;44.02;96316.19;4958938;28;19953;-47
2023/06/07 03:46:23;;;;;;;;;;;;;;;26.75;45.84;96310.09;4960013;28;20402;-51
2023/06/07 03:49:05;;;;;;;;;;;;;;;27.11;44.81;96315.94;4956150;28;19980;-46
2023/06/07 03:51:38;;;;;;;;;;;;;;;26.91;45.34;96307.56;4961482;28;19965;-49
2023/06/07 03:54:08;;;;;;;;;;;;;;;28.07;42.99;96314.50;4975427;28;20403;-49
2023/06/07 03:56:45;;;;;;;;;;;;;;;28.64;41.26;96319.25;4958525;28;19969;-49
2023/06/07 03:59:15;;;;;;;;;;;;;;;28.39;41.31;96320.75;4960467;28;20417;-46
2023/06/07 04:01:43;;;;;;;;;;;;;;;29.26;39.83;96314.94;4961071;28;19964;-47
2023/06/07 04:04:11;;;;;;;;;;;;;;;29.90;38.11;96303.63;4963678;28;19980;-43
2023/06/07 04:06:39;;;;;;;;;;;;;;;30.23;37.50;96315.91;4960912;28;19962;-44
2023/06/07 04:09:08;;;;;;;;;;;;;;;30.69;36.38;96307.66;4956537;28;19969;-44
2023/06/07 04:11:36;;;;;;;;;;;;;;;30.06;37.23;96317.25;4965343;28;19965;-46
2023/06/07 04:14:05;;;;;;;;;;;;;;;30.23;37.13;96313.19;4964725;28;19972;-48
2023/06/07 04:16:33;;;;;;;;;;;;;;;30.16;37.86;96317.25;4959109;28;20353;-44
2023/06/07 04:19:01;;;;;;;;;;;;;;;30.71;37.20;96321.00;4960710;28;19969;-44
2023/06/07 04:21:29;;;;;;;;;;;;;;;31.67;35.35;96327.97;4959672;28;19988;-48
2023/06/07 04:23:58;;;;;;;;;;;;;;;31.50;36.17;96324.81;4964009;28;19968;-43
2023/06/07 04:26:30;;;;;;;;;;;;;;;31.41;36.13;96323.75;4963998;28;20011;-46
2023/06/07 04:28:58;;;;;;;;;;;;;;;31.77;35.47;96318.09;4963682;28;19976;-44
2023/06/07 04:31:33;;;;;;;;;;;;;;;31.76;35.83;96317.25;4965403;28;19981;-45
2023/06/07 04:34:02;;;;;;;;;;;;;;;32.92;34.05;96321.19;4959905;28;21022;-44
2023/06/07 04:36:30;;;;;;;;;;;;;;;33.11;33.74;96326.72;4961445;28;19961;-45
2023/06/07 04:38:58;;;;;;;;;;;;;;;33.54;33.39;96325.63;4963720;28;20361;-45
2023/06/07 04:41:30;;;;;;;;;;;;;;;33.22;33.29;96331.75;4960935;28;20363;-46
2023/06/07 04:43:58;;;;;;;;;;;;;;;33.79;32.53;96331.81;4965755;28;19957;-47
2023/06/07 04:46:28;;;;;;;;;;;;;;;32.57;34.36;96343.13;4958393;28;19969;-45
2023/06/07 04:48:57;;;;;;;;;;;;;;;31.35;35.85;96338.50;4963229;28;19972;-43
2023/06/07 04:51:26;;;;;;;;;;;;;;;32.98;34.09;96333.72;4962388;28;19965;-46
2023/06/07 04:53:58;;;;;;;;;;;;;;;31.70;35.96;96342.16;4960991;28;19961;-48
2023/06/07 04:56:27;;;;;;;;;;;;;;;32.81;34.30;96332.22;4963314;28;20402;-45
2023/06/07 04:58:55;;;;;;;;;;;;;;;34.12;32.54;96319.03;4963904;28;19984;-46
2023/06/07 05:01:24;;;;;;;;;;;;;;;33.91;32.97;96325.91;4957243;28;19961;-43
2023/06/07 05:04:00;;;;;;;;;;;;;;;33.61;33.35;96327.97;4959645;28;19965;-50
2023/06/07 05:06:29;;;;;;;;;;;;;;;31.28;36.39;96349.69;4959798;28;20373;-49
2023/06/07 05:08:57;;;;;;;;;;;;;;;34.34;32.80;96331.25;4966207;28;19988;-45
2023/06/07 05:11:25;;;;;;;;;;;;;;;34.89;31.92;96329.44;4964838;28;20374;-46
2023/06/07 05:13:53;;;;;;;;;;;;;;;33.56;33.26;96339.00;4965777;28;19981;-48
2023/06/07 05:16:21;;;;;;;;;;;;;;;34.29;33.17;96337.63;4953721;28;19966;-48
2023/06/07 05:18:49;;;;;;;;;;;;;;;33.72;33.87;96334.91;4956628;28;20374;-47
2023/06/07 05:21:18;;;;;;;;;;;;;;;33.50;34.62;96341.00;4964285;28;19956;-46
2023/06/07 05:23:46;;;;;;;;;;;;;;;33.38;34.88;96342.47;4955895;28;20611;-53
2023/06/07 05:26:14;;;;;;;;;;;;;;;32.64;35.89;96350.97;4958863;28;20008;-44
2023/06/07 05:28:42;;;;;;;;;;;;;;;33.26;35.29;96343.72;4956965;28;19973;-50
2023/06/07 05:31:11;;;;;;;;;;;;;;;34.23;33.44;96336.91;4958075;28;20425;-45
2023/06/07 05:33:40;;;;;;;;;;;;;;;34.25;33.58;96344.81;4957578;28;19962;-47
2023/06/07 05:36:10;;;;;;;;;;;;;;;33.48;34.38;96342.38;4959175;28;19973;-45
2023/06/07 05:38:39;;;;;;;;;;;;;;;33.74;34.23;96342.84;4958679;28;20073;-45
2023/06/07 05:41:07;;;;;;;;;;;;;;;33.92;34.41;96341.22;4964836;28;19966;-44
2023/06/07 05:43:37;;;;;;;;;;;;;;;34.22;34.10;96335.28;4959300;28;19953;-49
2023/06/07 05:46:05;;;;;;;;;;;;;;;34.21;33.98;96335.59;4961345;28;19966;-44
2023/06/07 05:48:33;;;;;;;;;;;;;;;34.54;34.29;96343.81;4963925;28;20403;-49
2023/06/07 05:51:01;;;;;;;;;;;;;;;35.14;32.96;96341.06;4968243;28;19973;-50
2023/06/07 05:53:29;;;;;;;;;;;;;;;34.66;33.57;96341.41;4957051;28;19973;-46
2023/06/07 05:55:59;;;;;;;;;;;;;;;35.04;32.98;96344.81;4957968;28;19965;-42
2023/06/07 05:58:27;;;;;;;;;;;;;;;35.35;32.77;96346.94;4960031;28;19972;-45
2023/06/07 06:00:55;;;;;;;;;;;;;;;34.36;34.38;96350.94;4958041;28;20425;-47
2023/06/07 06:03:23;;;;;;;;;;;;;;;35.23;33.21;96352.09;4960807;28;19961;-45
2023/06/07 06:05:52;;;;;;;;;;;;;;;35.36;32.77;96352.09;4958693;28;19972;-46
2023/06/07 06:08:20;;;;;;;;;;;;;;;35.15;33.71;96350.91;4966066;28;19970;-52
2023/06/07 06:10:48;;;;;;;;;;;;;;;35.10;33.90;96354.56;4959792;28;19981;-50
2023/06/07 06:13:17;;;;;;;;;;;;;;;34.95;34.21;96360.28;4957807;28;19968;-44
2023/06/07 06:15:45;;;;;;;;;;;;;;;34.82;34.09;96356.41;4957993;28;19957;-45
2023/06/07 06:18:13;;;;;;;;;;;;;;;34.29;35.34;96350.50;4964515;28;20433;-46
2023/06/07 06:20:41;;;;;;;;;;;;;;;34.62;34.38;96357.63;4956178;28;19968;-44
2023/06/07 06:23:10;;;;;;;;;;;;;;;34.81;34.14;96346.59;4953701;28;19988;-47
2023/06/07 06:25:38;;;;;;;;;;;;;;;34.49;35.43;96350.16;4960156;28;19965;-44
2023/06/07 06:28:06;;;;;;;;;;;;;;;34.56;35.14;96347.06;4954647;28;19949;-47
2023/06/07 06:30:35;;;;;;;;;;;;;;;33.91;36.16;96353.28;4958873;28;19972;-47
2023/06/07 06:33:03;;;;;;;;;;;;;;;33.84;36.12;96358.31;4962289;28;20436;-47
2023/06/07 06:35:32;;;;;;;;;;;;;;;34.03;36.54;96350.91;4965287;28;20381;-48
2023/06/07 06:38:01;;;;;;;;;;;;;;;35.07;35.07;96357.09;4961044;28;20065;-45
2023/06/07 06:40:29;;;;;;;;;;;;;;;34.09;36.49;96355.19;4952455;28;19961;-46
2023/06/07 06:42:59;;;;;;;;;;;;;;;34.71;35.62;96346.78;4963707;28;19954;-45
2023/06/07 06:45:28;;;;;;;;;;;;;;;34.86;35.49;96356.63;4963018;28;19964;-50
2023/06/07 06:47:58;;;;;;;;;;;;;;;34.46;36.59;96361.72;4956117;28;19962;-45
2023/06/07 06:50:29;;;;;;;;;;;;;;;34.36;36.35;96357.22;4965377;28;19957;-45
2023/06/07 06:53:00;;;;;;;;;;;;;;;35.55;34.84;96357.50;4954898;28;19954;-46
2023/06/07 06:55:29;;;;;;;;;;;;;;;33.15;37.99;96366.84;4951496;28;20346;-48
2023/06/07 06:57:57;;;;;;;;;;;;;;;34.71;36.03;96347.59;4960949;28;20386;-46
2023/06/07 07:00:25;;;;;;;;;;;;;;;34.82;35.88;96355.63;4957374;28;19954;-46
2023/06/07 07:02:53;;;;;;;;;;;;;;;35.40;34.79;96357.78;4967044;28;20320;-49
2023/06/07 07:05:23;;;;;;;;;;;;;;;35.27;34.70;96361.34;4962980;28;19945;-48
2023/06/07 07:07:51;;;;;;;;;;;;;;;35.79;34.05;96361.88;4964069;28;20109;-50
2023/06/07 07:10:19;;;;;;;;;;;;;;;36.03;33.45;96356.16;4960125;28;19957;-46
2023/06/07 07:12:47;;;;;;;;;;;;;;;35.88;33.70;96360.84;4963027;28;19953;-46
2023/06/07 07:15:15;;;;;;;;;;;;;;;36.20;33.69;96360.97;4960817;28;20465;-50
2023/06/07 07:17:46;;;;;;;;;;;;;;;36.29;33.53;96367.34;4969457;28;20006;-46
2023/06/07 07:20:14;;;;;;;;;;;;;;;36.70;32.91;96358.91;4960357;28;19945;-45
2023/06/07 07:22:45;;;;;;;;;;;;;;;36.78;33.31;96366.34;4963038;28;19954;-46
2023/06/07 07:25:13;;;;;;;;;;;;;;;36.77;32.98;96355.69;4963738;28;19972;-51
2023/06/07 07:27:41;;;;;;;;;;;;;;;36.47;33.55;96354.53;4964610;28;19957;-51
2023/06/07 07:30:10;;;;;;;;;;;;;;;35.79;34.82;96359.13;4957384;28;19956;-50
2023/06/07 07:32:39;;;;;;;;;;;;;;;36.52;33.33;96360.75;4958436;28;19958;-46
2023/06/07 07:35:07;;;;;;;;;;;;;;;35.94;34.18;96371.72;4956557;28;20066;-48
2023/06/07 07:37:35;;;;;;;;;;;;;;;35.61;34.27;96358.97;4968953;28;19964;-44
2023/06/07 07:40:06;;;;;;;;;;;;;;;35.79;34.80;96361.88;4966482;28;19958;-49
2023/06/07 07:42:34;;;;;;;;;;;;;;;36.11;34.00;96364.47;4963224;28;20379;-47
2023/06/07 07:45:03;;;;;;;;;;;;;;;34.42;36.13;96358.75;4966777;28;19949;-45
2023/06/07 07:47:31;;;;;;;;;;;;;;;35.64;34.69;96357.56;4967166;28;19950;-46
2023/06/07 07:50:00;;;;;;;;;;;;;;;35.64;34.21;96361.13;4956475;28;20155;-50
2023/06/07 07:52:28;;;;;;;;;;;;;;;35.33;35.01;96362.84;4968770;28;19957;-46
2023/06/07 07:54:56;;;;;;;;;;;;;;;37.33;32.54;96356.09;4963524;28;21058;-45
2023/06/07 07:57:26;;;;;;;;;;;;;;;37.87;31.34;96359.44;4960013;28;19980;-46
2023/06/07 07:59:54;;;;;;;;;;;;;;;37.92;31.28;96360.16;4970907;28;19961;-45
2023/06/07 08:02:22;;;;;;;;;;;;;;;37.20;32.32;96360.56;4960311;28;19923;-48
2023/06/07 08:04:53;;;;;;;;;;;;;;;35.93;32.85;96359.09;4963375;28;19965;-49
2023/06/07 08:07:22;;;;;;;;;;;;;;;36.53;32.87;96356.06;4958978;28;19972;-45
2023/06/07 08:09:50;;;;;;;;;;;;;;;36.09;34.00;96350.22;4962352;28;19957;-49
2023/06/07 08:12:18;;;;;;;;;;;;;;;34.88;34.59;96359.88;4955450;28;19972;-46
2023/06/07 08:14:48;;;;;;;;;;;;;;;36.43;32.74;96348.84;4959403;28;20090;-45
2023/06/07 08:17:16;;;;;;;;;;;;;;;35.98;33.40;96353.50;4964780;28;19953;-44
2023/06/07 08:19:44;;;;;;;;;;;;;;;36.57;32.92;96352.34;4962296;28;19973;-44
2023/06/07 08:22:12;;;;;;;;;;;;;;;37.42;32.03;96360.50;4957270;28;19969;-46
2023/06/07 08:24:40;;;;;;;;;;;;;;;37.24;31.92;96359.63;4958962;28;19954;-49
2023/06/07 08:27:08;;;;;;;;;;;;;;;37.41;31.14;96360.81;4961097;28;19969;-45
2023/06/07 08:29:36;;;;;;;;;;;;;;;37.68;30.58;96360.59;4963503;28;19969;-45
2023/06/07 08:32:06;;;;;;;;;;;;;;;37.47;30.87;96356.81;4954427;28;19957;-47
2023/06/07 08:34:37;;;;;;;;;;;;;;;37.68;30.78;96355.09;4957723;28;19964;-46
2023/06/07 08:37:06;;;;;;;;;;;;;;;37.95;30.38;96353.16;4960551;28;20401;-47
2023/06/07 08:39:34;;;;;;;;;;;;;;;37.99;30.19;96356.88;4964145;28;19929;-48
2023/06/07 08:42:02;;;;;;;;;;;;;;;38.57;29.40;96346.47;4968589;28;19968;-47
2023/06/07 08:44:30;;;;;;;;;;;;;;;36.78;31.24;96363.59;4958834;28;19964;-50
2023/06/07 08:46:58;;;;;;;;;;;;;;;37.70;30.29;96355.53;4968570;28;19965;-47
2023/06/07 08:49:28;;;;;;;;;;;;;;;37.84;30.09;96351.84;4963122;28;20355;-49
2023/06/07 08:51:56;;;;;;;;;;;;;;;37.48;30.25;96356.50;4971531;28;19972;-45
2023/06/07 08:54:43;;;;;;;;;;;;;;;36.62;31.03;96356.13;4962610;28;19957;-46
2023/06/07 08:57:14;;;;;;;;;;;;;;;36.79;30.79;96350.72;4971020;28;19957;-46
2023/06/07 08:59:43;;;;;;;;;;;;;;;37.62;30.37;96353.59;4961113;28;19958;-46
2023/06/07 09:02:12;;;;;;;;;;;;;;;37.62;30.41;96352.81;4958750;28;19957;-43
2023/06/07 09:04:41;;;;;;;;;;;;;;;37.94;29.38;96346.84;4963545;28;19976;-46
2023/06/07 09:07:09;;;;;;;;;;;;;;;38.15;28.88;96347.00;4966085;28;19976;-45
2023/06/07 09:09:40;;;;;;;;;;;;;;;38.51;28.10;96345.03;4960863;28;20433;-45
2023/06/07 09:12:08;;;;;;;;;;;;;;;38.60;27.59;96349.38;4967243;28;19969;-45
2023/06/07 09:14:37;;;;;;;;;;;;;;;38.28;28.15;96342.47;4965499;28;19980;-44
2023/06/07 09:17:05;;;;;;;;;;;;;;;39.07;28.15;96334.81;4963131;28;19976;-47
2023/06/07 09:19:34;;;;;;;;;;;;;;;39.44;27.50;96337.88;4958053;28;19957;-48
2023/06/07 09:22:03;;;;;;;;;;;;;;;39.95;26.50;96333.16;4968537;28;19968;-45
2023/06/07 09:24:31;;;;;;;;;;;;;;;38.12;27.94;96341.34;4961089;28;19957;-45
2023/06/07 09:27:00;;;;;;;;;;;;;;;38.89;27.49;96342.38;4955203;28;19950;-52
2023/06/07 09:29:29;;;;;;;;;;;;;;;38.61;28.13;96341.91;4952264;28;19964;-46
2023/06/07 09:31:59;;;;;;;;;;;;;;;37.76;28.68;96347.97;4966798;28;19956;-45
2023/06/07 09:34:28;;;;;;;;;;;;;;;38.05;28.48;96344.56;4956200;28;20385;-46
2023/06/07 09:36:57;;;;;;;;;;;;;;;38.55;27.26;96346.81;4965737;28;20398;-46
2023/06/07 09:39:27;;;;;;;;;;;;;;;39.08;27.97;96348.25;4958557;28;19984;-46
2023/06/07 09:41:56;;;;;;;;;;;;;;;38.24;27.69;96352.50;4962074;28;19933;-46
2023/06/07 09:44:25;;;;;;;;;;;;;;;38.88;26.40;96344.28;4954587;28;19923;-46
2023/06/07 09:46:53;;;;;;;;;;;;;;;39.72;26.96;96349.28;4960700;28;19961;-47
2023/06/07 09:49:27;;;;;;;;;;;;;;;39.73;26.76;96345.34;4963844;28;20363;-46
2023/06/07 09:51:55;;;;;;;;;;;;;;;38.30;28.10;96350.38;4963511;28;19957;-44
2023/06/07 09:54:37;;;;;;;;;;;;;;;37.77;28.60;96358.63;4957922;28;19953;-47
2023/06/07 09:57:07;;;;;;;;;;;;;;;37.76;28.45;96348.75;4954767;28;20370;-45
2023/06/07 09:59:37;;;;;;;;;;;;;;;37.88;28.22;96344.53;4963133;28;19965;-47
2023/06/07 10:02:22;;;;;;;;;;;;;;;38.39;27.49;96329.97;4957504;28;20228;-49
2023/06/07 10:04:53;;;;;;;;;;;;;;;39.79;25.98;96338.50;4957499;28;19929;-47
2023/06/07 10:07:25;;;;;;;;;;;;;;;38.85;26.98;96333.94;4955314;28;19922;-45
2023/06/07 10:09:56;;;;;;;;;;;;;;;39.17;26.22;96329.72;4952714;28;20378;-46
2023/06/07 10:12:26;;;;;;;;;;;;;;;40.33;24.99;96328.28;4963308;28;19964;-44
2023/06/07 10:14:54;;;;;;;;;;;;;;;38.10;27.61;96333.41;4965438;28;19965;-45
2023/06/07 10:17:25;;;;;;;;;;;;;;;39.27;26.07;96322.25;4957219;28;19976;-49
2023/06/07 10:19:57;;;;;;;;;;;;;;;38.31;27.06;96329.97;4958792;28;19980;-50
2023/06/07 10:22:27;;;;;;;;;;;;;;;38.94;25.96;96326.44;4960239;28;19969;-50
2023/06/07 10:25:00;;;;;;;;;;;;;;;38.92;26.23;96325.13;4953909;28;19969;-44
2023/06/07 10:27:35;;;;;;;;;;;;;;;37.94;27.00;96326.78;4964092;28;20289;-52
2023/06/07 10:30:03;;;;;;;;;;;;;;;38.52;26.11;96319.91;4960168;28;19965;-50
2023/06/07 10:32:34;;;;;;;;;;;;;;;37.70;26.38;96322.53;4965250;28;19957;-48
2023/06/07 10:35:02;;;;;;;;;;;;;;;40.22;24.04;96324.31;4958810;28;20347;-52
2023/06/07 10:37:32;;;;;;;;;;;;;;;39.46;24.71;96325.38;4956434;28;19962;-52
2023/06/07 10:40:05;;;;;;;;;;;;;;;39.50;25.23;96318.03;4958279;28;20042;-49
2023/06/07 10:42:33;;;;;;;;;;;;;;;39.04;25.41;96321.69;4966122;28;19964;-46
2023/06/07 10:45:02;;;;;;;;;;;;;;;39.30;24.96;96311.38;4967417;28;19953;-47
2023/06/07 10:47:30;;;;;;;;;;;;;;;40.90;23.72;96312.06;4978249;28;19945;-48
2023/06/07 10:49:58;;;;;;;;;;;;;;;40.28;25.04;96309.16;4961899;28;19968;-45
2023/06/07 10:52:27;;;;;;;;;;;;;;;39.59;24.57;96312.47;4960684;28;19976;-45
2023/06/07 10:54:55;;;;;;;;;;;;;;;39.42;24.86;96310.63;4971911;28;19969;-46
2023/06/07 10:57:37;;;;;;;;;;;;;;;40.01;24.73;96310.50;4958265;28;20447;-45
2023/06/07 11:00:24;;;;;;;;;;;;;;;40.60;24.03;96315.03;4953043;28;20034;-48
2023/06/07 11:03:09;;;;;;;;;;;;;;;40.23;23.99;96314.06;4960678;28;19988;-46
2023/06/07 11:05:52;;;;;;;;;;;;;;;39.10;25.82;96310.13;4960947;28;19961;-45
2023/06/07 11:08:24;;;;;;;;;;;;;;;39.84;24.70;96308.72;4964323;28;19972;-49
2023/06/07 11:10:58;;;;;;;;;;;;;;;40.41;23.67;96303.66;4967168;28;19965;-46
2023/06/07 11:13:27;;;;;;;;;;;;;;;40.44;24.01;96300.22;4960809;28;20021;-45
2023/06/07 11:16:00;;;;;;;;;;;;;;;40.70;23.18;96308.25;4966183;28;19958;-49
2023/06/07 11:18:36;;;;;;;;;;;;;;;40.92;22.92;96309.75;4964157;28;19961;-46
2023/06/07 11:21:04;;;;;;;;;;;;;;;41.41;22.60;96310.59;4962473;28;20395;-47
2023/06/07 11:23:34;;;;;;;;;;;;;;;41.57;22.69;96298.81;4968353;28;19969;-44
2023/06/07 11:26:08;;;;;;;;;;;;;;;41.28;22.47;96301.47;4965147;28;20003;-49
2023/06/07 11:28:38;;;;;;;;;;;;;;;41.67;22.05;96307.44;4963099;28;19922;-45
2023/06/07 11:31:08;;;;;;;;;;;;;;;41.73;22.08;96292.19;4958021;28;19957;-49
2023/06/07 11:33:37;;;;;;;;;;;;;;;41.22;21.86;96300.09;4967568;28;19953;-46
2023/06/07 11:36:05;;;;;;;;;;;;;;;40.90;22.50;96292.72;4963440;28;19971;-48
2023/06/07 11:38:33;;;;;;;;;;;;;;;40.51;22.79;96290.22;4960623;28;19974;-48
2023/06/07 11:41:03;;;;;;;;;;;;;;;40.53;23.09;96295.38;4959959;28;19981;-48
2023/06/07 11:43:31;;;;;;;;;;;;;;;42.48;21.40;96279.69;4960360;28;20395;-45
2023/06/07 11:46:00;;;;;;;;;;;;;;;41.40;21.86;96291.53;4966685;28;19970;-45
2023/06/07 11:48:28;;;;;;;;;;;;;;;42.34;21.15;96282.88;4964406;28;19969;-49
2023/06/07 11:50:57;;;;;;;;;;;;;;;42.53;20.43;96275.81;4955571;28;19970;-50
2023/06/07 11:53:28;;;;;;;;;;;;;;;41.96;21.60;96281.41;4956544;28;19962;-50
2023/06/07 11:55:57;;;;;;;;;;;;;;;41.80;21.77;96274.19;4961350;28;19969;-48
2023/06/07 11:58:25;;;;;;;;;;;;;;;40.54;23.47;96274.91;4960123;28;19958;-54
2023/06/07 12:00:53;;;;;;;;;;;;;;;41.41;23.14;96279.34;4954506;28;19976;-50
2023/06/07 12:03:22;;;;;;;;;;;;;;;40.55;22.85;96271.78;4960942;28;19957;-47
2023/06/07 12:05:53;;;;;;;;;;;;;;;40.97;22.93;96260.53;4956021;28;20009;-48
2023/06/07 12:08:22;;;;;;;;;;;;;;;39.72;23.58;96258.16;4971680;28;20608;-47
2023/06/07 12:10:52;;;;;;;;;;;;;;;41.20;22.06;96254.56;4954740;28;20407;-45
2023/06/07 12:13:21;;;;;;;;;;;;;;;41.44;21.83;96256.53;4957989;28;19964;-47
2023/06/07 12:15:49;;;;;;;;;;;;;;;42.41;21.31;96238.69;4958666;28;20407;-46
2023/06/07 12:18:18;;;;;;;;;;;;;;;42.30;21.04;96239.59;4955559;28;19965;-45
2023/06/07 12:20:48;;;;;;;;;;;;;;;42.26;21.18;96241.41;4968845;28;20371;-45
2023/06/07 12:23:20;;;;;;;;;;;;;;;41.83;21.32;96238.25;4971442;28;20375;-48
2023/06/07 12:25:48;;;;;;;;;;;;;;;41.28;21.62;96240.59;4960403;28;19965;-47
2023/06/07 12:28:16;;;;;;;;;;;;;;;41.28;20.84;96237.03;4958977;28;19983;-47
2023/06/07 12:30:45;;;;;;;;;;;;;;;41.89;20.60;96236.09;4967159;28;20641;-47
2023/06/07 12:33:14;;;;;;;;;;;;;;;40.54;23.09;96238.97;4961622;28;19965;-45
2023/06/07 12:35:47;;;;;;;;;;;;;;;40.73;22.76;96227.38;4961813;28;19965;-46
2023/06/07 12:38:16;;;;;;;;;;;;;;;41.15;22.44;96224.34;4961442;28;19966;-51
2023/06/07 12:40:45;;;;;;;;;;;;;;;40.92;22.04;96227.59;4968683;28;19957;-47
2023/06/07 12:43:14;;;;;;;;;;;;;;;41.55;21.51;96218.88;4961509;28;20011;-48
2023/06/07 12:45:42;;;;;;;;;;;;;;;40.75;21.16;96225.06;4969121;28;19961;-46
2023/06/07 12:48:10;;;;;;;;;;;;;;;42.01;20.57;96213.03;4962655;28;19969;-48
2023/06/07 12:50:38;;;;;;;;;;;;;;;42.43;20.13;96211.44;4969405;28;19973;-47
2023/06/07 12:53:06;;;;;;;;;;;;;;;43.07;20.16;96209.41;4963371;28;20344;-45
2023/06/07 12:55:35;;;;;;;;;;;;;;;43.24;19.70;96212.97;4961564;28;20403;-45
2023/06/07 12:58:03;;;;;;;;;;;;;;;42.72;19.69;96206.63;4960774;28;20366;-49